Time;durP1;ratioP1;P1;durP2;ratioP2;P2;SDS_P1;SDS_P2;PMS_P1;PMS_P2;Temp;Humidity;BMP_temperature;BMP_pressure;BME280_temperature;BME280_humidity;BME280_pressure;Samples;Min_cycle;Max_cycle;Signal;HPM_P1;HPM_P2
2021/05/28 00:00:55;;;;;;;17.50;10.30;;;;;;;9.88;87.78;101311.33;128563;1101;62937;-76
2021/05/28 00:03:22;;;;;;;22.27;8.90;;;;;;;9.88;88.54;101319.27;128518;1101;61968;-76
2021/05/28 00:05:49;;;;;;;24.03;11.23;;;;;;;9.87;88.14;101315.80;128622;1101;62199;-77
2021/05/28 00:08:16;;;;;;;23.53;10.80;;;;;;;9.86;88.34;101319.45;128581;1101;62002;-77
2021/05/28 00:10:43;;;;;;;21.17;10.20;;;;;;;9.86;88.22;101329.20;128370;1104;61995;-77
2021/05/28 00:13:11;;;;;;;22.93;10.73;;;;;;;9.85;88.19;101333.67;128580;1101;62064;-76
2021/05/28 00:15:39;;;;;;;21.10;10.77;;;;;;;9.84;88.26;101333.81;128368;1101;62362;-76
2021/05/28 00:18:08;;;;;;;21.60;11.13;;;;;;;9.84;88.49;101341.77;128354;1104;62287;-77
2021/05/28 00:20:35;;;;;;;27.03;13.07;;;;;;;9.84;88.41;101344.42;128351;1102;62177;-77
2021/05/28 00:23:03;;;;;;;28.27;12.00;;;;;;;9.83;88.64;101340.94;128504;1101;61531;-77
2021/05/28 00:25:30;;;;;;;26.87;15.60;;;;;;;9.83;88.90;101346.24;128338;1104;62051;-77
2021/05/28 00:27:57;;;;;;;27.47;11.90;;;;;;;9.83;89.05;101350.72;128362;1104;62436;-77
2021/05/28 00:30:24;;;;;;;26.23;13.87;;;;;;;9.82;89.03;101349.04;128534;1101;62099;-77
2021/05/28 00:32:54;;;;;;;27.97;13.77;;;;;;;9.82;88.62;101357.84;128611;1101;62023;-77
2021/05/28 00:35:21;;;;;;;28.73;11.57;;;;;;;9.81;88.75;101348.21;128362;1104;62602;-78
2021/05/28 00:37:48;;;;;;;23.40;10.30;;;;;;;9.82;89.35;101354.34;128491;1101;62019;-78
2021/05/28 00:40:16;;;;;;;31.37;13.10;;;;;;;9.82;88.87;101351.69;128537;1101;62492;-77
2021/05/28 00:42:43;;;;;;;30.87;12.43;;;;;;;9.78;88.61;101349.36;128357;1104;62405;-77
2021/05/28 00:45:11;;;;;;;20.87;11.33;;;;;;;9.78;88.49;101348.53;128554;1101;62321;-78
2021/05/28 00:47:38;;;;;;;23.43;11.03;;;;;;;9.76;88.84;101356.63;128394;1104;62224;-77
2021/05/28 00:50:06;;;;;;;25.27;11.67;;;;;;;9.77;88.90;101354.80;128519;1101;62617;-77
2021/05/28 00:52:33;;;;;;;31.63;13.30;;;;;;;9.74;89.04;101361.25;128522;1101;62110;-77
2021/05/28 00:55:01;;;;;;;22.77;9.87;;;;;;;9.73;88.54;101361.39;128557;1101;62003;-78
2021/05/28 00:57:29;;;;;;;23.20;10.33;;;;;;;9.70;89.59;101367.83;128324;1104;62000;-77
2021/05/28 00:59:58;;;;;;;26.00;10.13;;;;;;;9.70;88.66;101367.83;128370;1104;62290;-78
2021/05/28 01:02:25;;;;;;;31.37;10.07;;;;;;;9.67;89.48;101367.30;128449;1101;62003;-77
2021/05/28 01:04:53;;;;;;;29.17;12.50;;;;;;;9.65;89.41;101370.12;128374;1101;62098;-77
2021/05/28 01:07:20;;;;;;;32.67;13.47;;;;;;;9.65;89.17;101375.42;128389;1102;61991;-77
2021/05/28 01:09:48;;;;;;;26.20;9.20;;;;;;;9.65;89.39;101378.07;128353;1104;61904;-77
2021/05/28 01:12:15;;;;;;;36.43;14.40;;;;;;;9.65;88.69;101380.72;128367;1104;62067;-77
2021/05/28 01:14:43;;;;;;;26.33;11.47;;;;;;;9.66;88.83;101381.54;128526;1101;62185;-77
2021/05/28 01:17:10;;;;;;;29.63;12.80;;;;;;;9.66;89.25;101378.89;128596;1101;62167;-77
2021/05/28 01:19:37;;;;;;;34.23;15.07;;;;;;;9.64;89.43;101386.98;128485;1101;62125;-77
2021/05/28 01:22:06;;;;;;;33.47;13.67;;;;;;;9.64;88.78;101388.80;128350;1104;62478;-77
2021/05/28 01:24:33;;;;;;;34.07;14.63;;;;;;;9.63;89.12;101393.28;128594;1101;62217;-77
2021/05/28 01:27:01;;;;;;;33.83;13.90;;;;;;;9.60;89.10;101398.86;128384;1104;62025;-77
2021/05/28 01:29:28;;;;;;;26.97;10.90;;;;;;;9.59;89.29;101403.34;128359;1103;62128;-77
2021/05/28 01:31:55;;;;;;;22.63;9.17;;;;;;;9.58;88.79;101406.13;128553;1101;62801;-77
2021/05/28 01:34:22;;;;;;;26.03;11.47;;;;;;;9.58;89.33;101411.42;128341;1102;62088;-77
2021/05/28 01:36:50;;;;;;;34.10;10.83;;;;;;;9.58;89.37;101422.02;128364;1105;62523;-77
2021/05/28 01:39:17;;;;;;;37.00;15.67;;;;;;;9.57;88.86;101415.07;128560;1101;61988;-77
2021/05/28 01:41:44;;;;;;;27.13;11.13;;;;;;;9.55;88.90;101407.27;128340;1104;62045;-77
2021/05/28 01:44:11;;;;;;;30.80;10.37;;;;;;;9.55;88.81;101411.74;128574;1101;62012;-77
2021/05/28 01:46:39;;;;;;;33.23;11.87;;;;;;;9.53;88.83;101419.83;128357;1104;62048;-77
2021/05/28 01:49:06;;;;;;;26.17;11.70;;;;;;;9.54;89.20;101413.56;128382;1102;61830;-77
2021/05/28 01:51:34;;;;;;;28.43;11.57;;;;;;;9.53;88.54;101424.30;128541;1101;62088;-77
2021/05/28 01:54:01;;;;;;;29.43;10.67;;;;;;;9.50;89.25;101422.79;128349;1104;62488;-78
2021/05/28 01:56:29;;;;;;;27.83;11.23;;;;;;;9.50;89.33;101421.94;128316;1104;62008;-77
2021/05/28 01:58:56;;;;;;;34.10;12.75;;;;;;;9.47;89.28;101415.13;128603;1101;61930;-77
2021/05/28 02:01:23;;;;;;;30.90;13.43;;;;;;;9.48;89.14;101426.55;128356;1105;62013;-77
2021/05/28 02:03:49;;;;;;;20.40;8.77;;;;;;;9.46;88.58;101423.25;128378;1104;62235;-77
2021/05/28 02:06:16;;;;;;;27.83;11.53;;;;;;;9.44;89.22;101419.91;128307;1104;62062;-77
2021/05/28 02:08:43;;;;;;;29.23;9.90;;;;;;;9.41;89.23;101425.48;128418;1104;62359;-77
2021/05/28 02:11:10;;;;;;;20.05;11.10;;;;;;;9.39;89.54;101426.48;128482;1101;62390;-77
2021/05/28 02:13:37;;;;;;;28.57;12.23;;;;;;;9.38;89.89;101427.45;128640;1101;62055;-77
2021/05/28 02:16:06;;;;;;;21.90;12.63;;;;;;;9.37;89.54;101431.09;128552;1101;62005;-77
2021/05/28 02:18:33;;;;;;;33.87;12.37;;;;;;;9.35;89.04;101433.06;128517;1101;62142;-77
2021/05/28 02:21:01;;;;;;;39.05;16.15;;;;;;;9.32;89.33;101435.98;128601;1101;61964;-77
2021/05/28 02:23:28;;;;;;;30.57;13.30;;;;;;;9.25;89.10;101428.80;128526;1101;62068;-78
2021/05/28 02:25:55;;;;;;;27.50;13.30;;;;;;;9.19;89.19;101433.69;128358;1104;62008;-79
2021/05/28 02:28:23;;;;;;;26.97;11.70;;;;;;;9.12;89.00;101447.68;128593;1101;62099;-78
2021/05/28 02:30:50;;;;;;;26.33;11.20;;;;;;;9.03;89.11;101448.54;128321;1102;62020;-78
2021/05/28 02:33:17;;;;;;;23.57;9.13;;;;;;;8.96;89.82;101454.41;128558;1101;62020;-78
2021/05/28 02:35:44;;;;;;;21.83;11.17;;;;;;;8.88;89.63;101451.69;128586;1101;62068;-78
2021/05/28 02:38:11;;;;;;;37.80;12.73;;;;;;;8.81;90.53;101455.88;128353;1101;62011;-78
2021/05/28 02:40:38;;;;;;;30.20;11.67;;;;;;;8.75;90.07;101451.16;128367;1104;64125;-77
2021/05/28 02:43:05;;;;;;;30.30;10.50;;;;;;;8.72;90.53;101456.75;128339;1104;62144;-77
2021/05/28 02:45:32;;;;;;;30.00;10.00;;;;;;;8.66;90.72;101460.80;128569;1101;62373;-78
2021/05/28 02:47:59;;;;;;;22.93;11.03;;;;;;;8.61;90.53;101467.48;128547;1101;61995;-78
2021/05/28 02:50:32;;;;;;;24.70;9.90;;;;;;;8.54;91.61;101460.14;128390;1104;62815;-78
2021/05/28 02:53:02;;;;;;;26.87;11.90;;;;;;;8.53;90.96;101460.28;128392;1101;62862;-78
2021/05/28 02:55:30;;;;;;;28.07;14.07;;;;;;;8.48;91.01;101466.00;128344;1101;63068;-78
2021/05/28 02:57:57;;;;;;;26.53;9.83;;;;;;;8.43;91.12;101468.22;128547;1101;62103;-78
2021/05/28 03:00:24;;;;;;;24.73;11.33;;;;;;;8.39;91.85;101480.02;128488;1101;62144;-78
2021/05/28 03:02:51;;;;;;;25.27;11.00;;;;;;;8.34;92.30;101476.97;128593;1101;62051;-78
2021/05/28 03:05:21;;;;;;;37.67;12.93;;;;;;;8.30;92.16;101478.23;128343;1104;62700;-78
2021/05/28 03:07:48;;;;;;;24.23;11.70;;;;;;;8.28;91.86;101480.17;128581;1101;63294;-79
2021/05/28 03:10:16;;;;;;;33.23;13.33;;;;;;;8.23;92.24;101482.42;128416;1101;62148;-79
2021/05/28 03:12:43;;;;;;;33.50;13.13;;;;;;;8.21;91.67;101479.08;128538;1101;61931;-78
2021/05/28 03:15:11;;;;;;;27.90;11.03;;;;;;;8.19;92.02;101486.31;128603;1101;61962;-77
2021/05/28 03:17:42;;;;;;;22.27;10.30;;;;;;;8.16;91.64;101487.44;128353;1104;62761;-77
2021/05/28 03:20:19;;;;;;;24.77;11.70;;;;;;;8.13;92.07;101483.23;128361;1104;61946;-77
2021/05/28 03:22:46;;;;;;;35.37;12.57;;;;;;;8.11;92.04;101490.47;128601;1101;62446;-77
2021/05/28 03:25:13;;;;;;;26.50;11.80;;;;;;;8.07;92.71;101494.36;128383;1105;62098;-78
2021/05/28 03:27:41;;;;;;;33.70;11.97;;;;;;;8.07;92.22;101493.53;128574;1101;62000;-78
2021/05/28 03:30:10;;;;;;;27.53;11.40;;;;;;;8.05;92.36;101491.02;128460;1101;62462;-78
2021/05/28 03:32:37;;;;;;;32.20;11.07;;;;;;;8.03;92.45;101492.97;128357;1104;62061;-78
2021/05/28 03:35:06;;;;;;;24.87;10.40;;;;;;;8.02;92.30;101496.59;128522;1101;62266;-78
2021/05/28 03:37:33;;;;;;;29.53;11.70;;;;;;;8.01;92.41;101505.52;128569;1101;62151;-78
2021/05/28 03:40:01;;;;;;;32.80;11.57;;;;;;;7.99;91.96;101485.46;128379;1104;62395;-78
2021/05/28 03:42:28;;;;;;;34.23;12.40;;;;;;;7.97;92.65;101488.27;128597;1101;62900;-77
2021/05/28 03:44:55;;;;;;;31.93;12.73;;;;;;;7.97;92.34;101485.63;128538;1102;61892;-77
2021/05/28 03:47:22;;;;;;;28.97;10.63;;;;;;;7.97;92.29;101488.27;128587;1102;62243;-78
2021/05/28 03:49:49;;;;;;;25.37;10.20;;;;;;;7.96;92.30;101486.58;128359;1104;62021;-78
2021/05/28 03:52:16;;;;;;;32.60;12.03;;;;;;;7.95;91.93;101485.75;128365;1102;62045;-77
2021/05/28 03:54:45;;;;;;;30.27;11.73;;;;;;;7.96;91.31;101494.50;128369;1104;61983;-77
2021/05/28 03:57:12;;;;;;;32.90;10.97;;;;;;;7.96;92.24;101494.50;128532;1101;62072;-77
2021/05/28 03:59:39;;;;;;;18.43;8.07;;;;;;;7.96;92.11;101497.14;128552;1101;62011;-78
2021/05/28 04:02:06;;;;;;;29.30;12.73;;;;;;;7.98;91.23;101492.56;128568;1101;62003;-77
2021/05/28 04:04:34;;;;;;;23.63;10.40;;;;;;;8.00;91.50;101498.55;128363;1104;61980;-78
2021/05/28 04:07:01;;;;;;;28.80;10.30;;;;;;;8.00;91.66;101490.61;128590;1101;62183;-78
2021/05/28 04:09:33;;;;;;;30.57;11.80;;;;;;;8.00;91.74;101493.26;128529;1101;62964;-80
2021/05/28 04:12:00;;;;;;;26.40;9.80;;;;;;;8.02;91.63;101493.13;128366;1104;62062;-80
2021/05/28 04:14:27;;;;;;;38.57;11.60;;;;;;;8.03;90.98;101500.06;128596;1101;62431;-80
2021/05/28 04:16:54;;;;;;;35.37;13.03;;;;;;;8.05;91.48;101506.05;128359;1104;62951;-80
2021/05/28 04:19:21;;;;;;;27.67;9.97;;;;;;;8.07;90.79;101504.10;128670;1101;62819;-79
2021/05/28 04:21:48;;;;;;;26.77;9.33;;;;;;;8.11;90.87;101513.42;128388;1102;62277;-80
2021/05/28 04:24:15;;;;;;;25.87;9.37;;;;;;;8.14;90.77;101506.06;128544;1101;61972;-80
2021/05/28 04:26:42;;;;;;;22.63;9.10;;;;;;;8.19;90.91;101513.57;128559;1101;62048;-80
2021/05/28 04:29:09;;;;;;;30.43;11.27;;;;;;;8.20;89.87;101509.94;128609;1101;62049;-80
2021/05/28 04:31:36;;;;;;;33.83;13.83;;;;;;;8.26;90.16;101503.27;128541;1101;62737;-78
2021/05/28 04:34:03;;;;;;;26.53;10.10;;;;;;;8.30;90.07;101515.23;128341;1104;62745;-77
2021/05/28 04:36:30;;;;;;;26.93;11.07;;;;;;;8.36;89.88;101517.32;128510;1101;62018;-77
2021/05/28 04:38:57;;;;;;;27.40;11.93;;;;;;;8.39;89.56;101514.38;128386;1104;62061;-77
2021/05/28 04:41:24;;;;;;;28.10;11.73;;;;;;;8.43;89.55;101523.73;128531;1101;62078;-77
2021/05/28 04:43:51;;;;;;;23.37;10.50;;;;;;;8.49;88.85;101528.47;128382;1104;62838;-78
2021/05/28 04:46:18;;;;;;;28.87;10.27;;;;;;;8.51;88.80;101529.16;128579;1101;61978;-78
2021/05/28 04:48:45;;;;;;;25.30;11.00;;;;;;;8.57;89.39;101523.31;128341;1104;62361;-78
2021/05/28 04:51:12;;;;;;;31.27;14.00;;;;;;;8.64;88.41;101536.80;128606;1101;62007;-78
2021/05/28 04:53:39;;;;;;;32.93;13.23;;;;;;;8.71;87.47;101534.42;128385;1102;62475;-78
2021/05/28 04:56:06;;;;;;;26.77;10.20;;;;;;;8.75;87.67;101536.63;128562;1101;63604;-78
2021/05/28 04:58:33;;;;;;;32.50;11.30;;;;;;;8.81;86.90;101542.34;128463;1101;62085;-78
2021/05/28 05:01:00;;;;;;;34.73;15.53;;;;;;;8.86;87.19;101554.19;128540;1101;62020;-78
2021/05/28 05:03:27;;;;;;;42.03;19.07;;;;;;;8.93;87.38;101549.98;128565;1101;62108;-77
2021/05/28 05:05:54;;;;;;;33.17;20.03;;;;;;;8.95;86.73;101558.61;128591;1101;62045;-78
2021/05/28 05:08:21;;;;;;;45.33;21.53;;;;;;;9.02;86.03;101558.05;128538;1101;62105;-78
2021/05/28 05:10:48;;;;;;;36.77;16.73;;;;;;;9.07;85.34;101564.55;128396;1104;62068;-79
2021/05/28 05:13:16;;;;;;;42.23;17.97;;;;;;;9.11;85.57;101567.75;128382;1102;62551;-79
2021/05/28 05:15:43;;;;;;;38.47;15.20;;;;;;;9.15;85.19;101559.38;128578;1101;61952;-76
2021/05/28 05:18:10;;;;;;;37.53;12.83;;;;;;;9.17;85.47;101559.24;128581;1101;62132;-80
2021/05/28 05:20:37;;;;;;;35.00;12.37;;;;;;;9.15;84.88;101563.84;128389;1102;62652;-77
2021/05/28 05:23:05;;;;;;;45.23;18.03;;;;;;;9.21;85.23;101554.50;128385;1101;62292;-76
2021/05/28 05:25:32;;;;;;;42.13;17.07;;;;;;;9.24;84.85;101556.84;128405;1104;61955;-79
2021/05/28 05:27:59;;;;;;;46.27;19.57;;;;;;;9.29;84.73;101560.74;128418;1104;61932;-79
2021/05/28 05:30:26;;;;;;;46.90;19.77;;;;;;;9.35;84.91;101562.81;128394;1104;62897;-78
2021/05/28 05:32:53;;;;;;;53.40;20.57;;;;;;;9.42;84.91;101570.17;128614;1101;62022;-78
2021/05/28 05:35:20;;;;;;;48.53;18.57;;;;;;;9.50;85.18;101572.90;128369;1104;62024;-78
2021/05/28 05:37:47;;;;;;;37.00;17.05;;;;;;;9.55;84.21;101570.67;128371;1101;62055;-78
2021/05/28 05:40:14;;;;;;;41.07;17.90;;;;;;;9.59;84.15;101577.34;128556;1101;62530;-78
2021/05/28 05:42:42;;;;;;;47.33;20.47;;;;;;;9.64;83.99;101580.38;128554;1101;62525;-77
2021/05/28 05:45:11;;;;;;;51.53;19.97;;;;;;;9.68;82.99;101589.70;128365;1104;62037;-79
2021/05/28 05:47:38;;;;;;;45.13;24.00;;;;;;;9.73;83.16;101595.41;128342;1104;62100;-79
2021/05/28 05:50:07;;;;;;;44.83;19.13;;;;;;;9.82;82.75;101592.83;128669;1101;62068;-76
2021/05/28 05:52:35;;;;;;;53.70;22.97;;;;;;;9.93;83.07;101592.64;128533;1101;62035;-77
2021/05/28 05:55:03;;;;;;;46.90;21.03;;;;;;;10.02;82.75;101594.39;128384;1101;62048;-77
2021/05/28 05:57:31;;;;;;;34.97;15.97;;;;;;;10.05;82.47;101591.46;128361;1104;62106;-76
2021/05/28 05:59:58;;;;;;;37.93;15.77;;;;;;;10.08;81.05;101587.67;128565;1101;62343;-76
2021/05/28 06:02:27;;;;;;;36.10;18.27;;;;;;;10.14;80.99;101593.20;128600;1101;62062;-76
2021/05/28 06:04:54;;;;;;;43.85;17.90;;;;;;;10.10;80.69;101591.83;128475;1101;62017;-76
2021/05/28 06:07:21;;;;;;;43.17;21.97;;;;;;;10.11;80.70;101595.31;128361;1104;62490;-79
2021/05/28 06:09:48;;;;;;;41.70;16.27;;;;;;;10.08;80.73;101593.80;128489;1101;62061;-83
2021/05/28 06:12:15;;;;;;;40.77;16.83;;;;;;;10.10;80.45;101613.05;128319;1104;61995;-78
2021/05/28 06:14:42;;;;;;;31.07;14.07;;;;;;;10.10;80.68;101607.73;128384;1104;62025;-78
2021/05/28 06:17:09;;;;;;;36.70;17.50;;;;;;;10.07;80.42;101612.50;128607;1101;62122;-78
2021/05/28 06:19:36;;;;;;;40.10;20.53;;;;;;;10.09;80.47;101608.70;128338;1104;61992;-80
2021/05/28 06:22:03;;;;;;;33.97;16.73;;;;;;;10.20;81.36;101608.52;128436;1101;62036;-80
2021/05/28 06:24:30;;;;;;;53.27;24.50;;;;;;;10.32;81.30;101610.97;128440;1104;62042;-79
2021/05/28 06:26:57;;;;;;;37.50;18.17;;;;;;;10.41;79.79;101607.41;128728;1101;62092;-79
2021/05/28 06:29:24;;;;;;;29.93;15.23;;;;;;;10.50;79.89;101605.69;128777;1101;61872;-79
2021/05/28 06:31:51;;;;;;;31.23;16.13;;;;;;;10.61;79.36;101621.36;128441;1103;61944;-78
2021/05/28 06:34:18;;;;;;;31.93;13.90;;;;;;;10.60;78.02;101625.84;128451;1104;62506;-80
2021/05/28 06:36:45;;;;;;;41.77;18.23;;;;;;;10.67;78.07;101619.90;128462;1104;62029;-80
2021/05/28 06:39:12;;;;;;;65.43;31.20;;;;;;;10.70;78.93;101614.30;128755;1101;62015;-80
2021/05/28 06:41:39;;;;;;;43.00;18.03;;;;;;;10.68;77.99;101632.20;128614;1101;61898;-81
2021/05/28 06:44:07;;;;;;;40.30;20.53;;;;;;;10.66;78.11;101623.55;128676;1101;61951;-81
2021/05/28 06:46:35;;;;;;;34.10;15.40;;;;;;;10.73;78.20;101617.50;128447;1104;62816;-78
2021/05/28 06:49:03;;;;;;;38.00;18.13;;;;;;;10.82;76.68;101629.02;128702;1101;62011;-79
2021/05/28 06:51:30;;;;;;;32.37;12.60;;;;;;;10.86;75.06;101625.06;128424;1104;62061;-80
2021/05/28 06:53:57;;;;;;;36.70;19.40;;;;;;;10.90;75.77;101620.26;128451;1104;61886;-79
2021/05/28 06:56:24;;;;;;;41.60;21.03;;;;;;;10.96;76.42;101620.47;128447;1104;61966;-79
2021/05/28 06:58:52;;;;;;;38.33;22.23;;;;;;;11.09;76.50;101609.44;128761;1101;62213;-80
2021/05/28 07:01:23;;;;;;;45.20;24.23;;;;;;;11.22;76.11;101620.50;128626;1101;62072;-80
2021/05/28 07:03:51;;;;;;;31.77;14.63;;;;;;;11.31;74.84;101629.35;128437;1104;62656;-79
2021/05/28 07:06:18;;;;;;;42.57;19.67;;;;;;;11.35;73.73;101625.39;128751;1101;61949;-79
2021/05/28 07:08:45;;;;;;;43.17;17.07;;;;;;;11.39;74.57;101625.89;128768;1101;61981;-80
2021/05/28 07:11:12;;;;;;;34.70;16.83;;;;;;;11.46;75.04;101624.29;128442;1104;62084;-80
2021/05/28 07:13:39;;;;;;;36.87;16.27;;;;;;;11.52;74.69;101622.84;128525;1102;61952;-80
2021/05/28 07:16:06;;;;;;;50.10;22.73;;;;;;;11.58;74.97;101623.03;128447;1104;61895;-79
2021/05/28 07:18:33;;;;;;;48.40;26.37;;;;;;;11.66;73.88;101619.56;128542;1101;62191;-79
2021/05/28 07:21:02;;;;;;;45.80;20.40;;;;;;;11.68;73.68;101625.55;128495;1101;61962;-80
2021/05/28 07:23:30;;;;;;;43.17;21.50;;;;;;;11.69;74.30;101621.91;128468;1104;62059;-79
2021/05/28 07:25:59;;;;;;;38.97;22.47;;;;;;;11.72;74.15;101621.59;128476;1102;61986;-79
2021/05/28 07:28:30;;;;;;;34.30;19.00;;;;;;;11.76;74.37;101632.73;128500;1101;62005;-80
2021/05/28 07:30:59;;;;;;;36.87;19.73;;;;;;;11.81;72.99;101627.77;128455;1104;62013;-79
2021/05/28 07:33:26;;;;;;;39.07;21.10;;;;;;;11.92;73.21;101631.98;128461;1104;61311;-79
2021/05/28 07:35:54;;;;;;;30.20;13.53;;;;;;;11.96;71.89;101634.16;128716;1101;63595;-79
2021/05/28 07:38:21;;;;;;;35.63;14.97;;;;;;;12.02;72.42;101628.20;128449;1104;62029;-79
2021/05/28 07:40:48;;;;;;;37.10;17.30;;;;;;;12.13;72.74;101640.36;128465;1104;61878;-79
2021/05/28 07:43:15;;;;;;;51.40;25.13;;;;;;;12.22;72.11;101638.59;128703;1101;62014;-80
2021/05/28 07:45:45;;;;;;;41.03;19.30;;;;;;;12.22;71.30;101647.39;128445;1104;62217;-80
2021/05/28 07:48:12;;;;;;;39.65;21.10;;;;;;;12.30;72.52;101645.73;128481;1101;62993;-79
2021/05/28 07:50:45;;;;;;;44.53;25.70;;;;;;;12.38;72.13;101646.58;128409;1104;62142;-79
2021/05/28 07:53:22;;;;;;;38.27;20.67;;;;;;;12.49;71.02;101652.59;128752;1101;61982;-80
2021/05/28 07:55:50;;;;;;;38.37;20.97;;;;;;;12.49;71.35;101645.44;128476;1101;61879;-81
2021/05/28 07:58:17;;;;;;;45.33;18.70;;;;;;;12.54;70.41;101647.63;128361;1104;62042;-82
2021/05/28 08:00:44;;;;;;;41.50;21.63;;;;;;;12.57;70.33;101648.11;128692;1101;62856;-84
2021/05/28 08:03:12;;;;;;;39.20;21.53;;;;;;;12.69;71.06;101645.12;128409;1102;62398;-83
2021/05/28 08:05:40;;;;;;;50.13;24.33;;;;;;;12.78;69.43;101641.48;128468;1101;62099;-83
2021/05/28 08:08:11;;;;;;;46.97;23.53;;;;;;;12.82;68.29;101640.16;128404;1104;62317;-83
2021/05/28 08:10:38;;;;;;;46.23;24.80;;;;;;;12.89;69.54;101642.98;128787;1101;62034;-83
2021/05/28 08:13:05;;;;;;;40.90;19.93;;;;;;;12.96;69.87;101639.48;128739;1101;61990;-80
2021/05/28 08:15:32;;;;;;;36.30;19.50;;;;;;;13.06;67.97;101632.13;128420;1104;61952;-81
2021/05/28 08:17:59;;;;;;;41.80;23.03;;;;;;;13.21;68.95;101634.12;128709;1101;61969;-81
2021/05/28 08:20:27;;;;;;;30.07;14.53;;;;;;;13.43;68.54;101641.44;128443;1104;61878;-82
2021/05/28 08:22:55;;;;;;;43.20;18.77;;;;;;;13.48;65.08;101642.77;128663;1101;61979;-81
2021/05/28 08:25:22;;;;;;;37.77;21.20;;;;;;;13.50;67.28;101649.58;128459;1104;61998;-85
2021/05/28 08:27:49;;;;;;;47.00;21.33;;;;;;;13.57;65.86;101649.73;128420;1102;62001;-83
2021/05/28 08:30:17;;;;;;;37.17;19.03;;;;;;;13.56;66.86;101648.91;128643;1101;62001;-85
2021/05/28 08:32:45;;;;;;;32.27;17.97;;;;;;;13.57;66.32;101647.06;128435;1104;61955;-80
2021/05/28 08:35:14;;;;;;;27.40;13.73;;;;;;;13.40;64.42;101656.94;128782;1101;61962;-80
2021/05/28 08:37:41;;;;;;;36.10;18.33;;;;;;;13.31;65.53;101649.97;128461;1104;62798;-82
2021/05/28 08:40:10;;;;;;;34.63;17.67;;;;;;;13.27;64.01;101649.43;128686;1101;62230;-79
2021/05/28 08:42:37;;;;;;;29.33;17.43;;;;;;;13.28;64.85;101653.74;128431;1104;61970;-81
2021/05/28 08:45:06;;;;;;;26.43;13.00;;;;;;;13.20;64.03;101653.78;128462;1104;62287;-79
2021/05/28 08:47:33;;;;;;;32.13;18.57;;;;;;;13.27;64.83;101670.75;128661;1101;62047;-80
2021/05/28 08:50:01;;;;;;;27.87;16.27;;;;;;;13.26;64.12;101653.11;128385;1104;64275;-82
2021/05/28 08:52:28;;;;;;;34.43;18.17;;;;;;;13.40;66.19;101652.42;128418;1102;61971;-80
2021/05/28 08:54:55;;;;;;;32.97;14.63;;;;;;;13.59;65.61;101648.55;128696;1101;61971;-80
2021/05/28 08:57:23;;;;;;;36.93;20.10;;;;;;;13.64;64.41;101651.55;128657;1101;61854;-79
2021/05/28 08:59:50;;;;;;;27.97;14.17;;;;;;;13.68;63.21;101670.68;128650;1101;61939;-78
2021/05/28 09:02:31;;;;;;;23.60;11.40;;;;;;;13.72;62.97;101657.84;128601;1101;62004;-78
2021/05/28 09:05:09;;;;;;;22.30;10.73;;;;;;;13.66;62.31;101656.69;128483;1101;62119;-78
2021/05/28 09:07:38;;;;;;;23.27;13.70;;;;;;;13.77;62.77;101656.34;128681;1101;61985;-79
2021/05/28 09:10:25;;;;;;;33.90;15.17;;;;;;;13.91;63.34;101664.61;128698;1101;62076;-80
2021/05/28 09:12:53;;;;;;;29.37;16.67;;;;;;;14.08;63.61;101664.35;128418;1104;61907;-79
2021/05/28 09:15:21;;;;;;;38.93;22.43;;;;;;;14.38;63.27;101659.19;128481;1101;62476;-81
2021/05/28 09:17:53;;;;;;;27.50;15.57;;;;;;;14.63;62.38;101662.56;128453;1101;62799;-82
2021/05/28 09:20:20;;;;;;;30.17;16.57;;;;;;;15.00;60.81;101666.30;128425;1104;62110;-82
2021/05/28 09:22:53;;;;;;;41.27;22.03;;;;;;;15.09;61.31;101659.86;128702;1101;62068;-82
2021/05/28 09:25:23;;;;;;;24.63;13.63;;;;;;;15.00;58.71;101666.30;128470;1104;61417;-81
2021/05/28 09:27:51;;;;;;;20.60;12.57;;;;;;;15.08;58.21;101671.54;128644;1101;62033;-80
2021/05/28 09:30:18;;;;;;;30.90;16.40;;;;;;;15.16;57.93;101667.16;128746;1101;62426;-81
2021/05/28 09:32:49;;;;;;;26.80;17.90;;;;;;;15.38;59.04;101652.05;128455;1104;61900;-80
2021/05/28 09:35:19;;;;;;;26.47;15.17;;;;;;;15.67;59.20;101664.61;128486;1101;61915;-80
2021/05/28 09:37:52;;;;;;;23.93;15.33;;;;;;;15.59;58.96;101659.35;128758;1101;62054;-80
2021/05/28 09:40:21;;;;;;;31.83;17.63;;;;;;;15.57;59.61;101656.85;128432;1104;63016;-79
2021/05/28 09:42:55;;;;;;;30.30;17.70;;;;;;;15.69;59.65;101675.96;128650;1102;61926;-81
2021/05/28 09:45:40;;;;;;;35.17;20.17;;;;;;;15.69;58.97;101663.41;128471;1101;62098;-80
2021/05/28 09:48:13;;;;;;;29.67;15.10;;;;;;;15.67;57.12;101670.78;128460;1104;63145;-80
2021/05/28 09:50:45;;;;;;;18.20;11.80;;;;;;;15.75;58.64;101666.41;128498;1101;61944;-76
2021/05/28 09:53:26;;;;;;;26.97;17.70;;;;;;;15.83;58.88;101666.28;128554;1101;64016;-77
2021/05/28 09:55:53;;;;;;;30.37;19.17;;;;;;;16.10;58.26;101676.30;128529;1102;61926;-77
2021/05/28 09:58:20;;;;;;;28.00;19.77;;;;;;;16.32;57.37;101657.63;128606;1101;62877;-77
2021/05/28 10:00:47;;;;;;;23.10;14.47;;;;;;;16.52;55.91;101673.91;128428;1104;62090;-77
2021/05/28 10:03:22;;;;;;;28.03;18.93;;;;;;;16.67;55.81;101676.52;128638;1101;62026;-77
2021/05/28 10:05:55;;;;;;;25.10;15.80;;;;;;;16.69;55.82;101664.59;128695;1101;62889;-79
2021/05/28 10:08:24;;;;;;;24.10;17.13;;;;;;;16.98;54.60;101665.51;128394;1104;61902;-79
2021/05/28 10:11:04;;;;;;;16.63;13.17;;;;;;;17.30;53.43;101674.82;128488;1102;61981;-78
2021/05/28 10:13:31;;;;;;;17.93;13.77;;;;;;;17.21;52.34;101659.06;128635;1101;62002;-78
2021/05/28 10:15:58;;;;;;;19.77;14.00;;;;;;;17.16;53.70;101656.97;128504;1101;61939;-81
2021/05/28 10:18:26;;;;;;;17.33;11.70;;;;;;;17.21;53.32;101656.38;128451;1104;62120;-80
2021/05/28 10:20:55;;;;;;;21.93;13.83;;;;;;;17.38;52.92;101647.00;128766;1101;61953;-80
2021/05/28 10:23:23;;;;;;;20.37;12.63;;;;;;;17.57;54.46;101658.06;128463;1104;62005;-82
2021/05/28 10:25:55;;;;;;;14.63;10.70;;;;;;;17.78;54.34;101667.88;128409;1104;61981;-79
2021/05/28 10:28:30;;;;;;;15.87;10.23;;;;;;;17.85;53.90;101672.30;128638;1101;62045;-81
2021/05/28 10:30:57;;;;;;;13.93;9.63;;;;;;;17.97;54.56;101671.72;128537;1101;62042;-83
2021/05/28 10:33:28;;;;;;;12.83;8.90;;;;;;;17.97;52.97;101671.72;128436;1101;62312;-84
2021/05/28 10:35:58;;;;;;;14.00;9.07;;;;;;;18.12;53.17;101680.45;128764;1101;62282;-80
2021/05/28 10:38:33;;;;;;;15.03;6.87;;;;;;;17.76;52.43;101664.56;128748;1101;62119;-83
2021/05/28 10:41:06;;;;;;;9.40;7.70;;;;;;;17.40;53.73;101661.05;128767;1101;61913;-82
2021/05/28 10:43:52;;;;;;;13.67;8.67;;;;;;;17.10;53.92;101674.66;128427;1104;62001;-84
2021/05/28 10:46:19;;;;;;;11.47;8.53;;;;;;;16.98;55.26;101678.91;128416;1104;62308;-84
2021/05/28 10:48:47;;;;;;;10.33;7.13;;;;;;;16.79;54.88;101682.18;128731;1101;62065;-82
2021/05/28 10:51:22;;;;;;;11.77;8.50;;;;;;;16.66;56.05;101674.84;128736;1101;62256;-81
2021/05/28 10:53:55;;;;;;;19.27;11.13;;;;;;;16.70;56.09;101673.45;128696;1101;61320;-80
2021/05/28 10:56:25;;;;;;;15.57;10.57;;;;;;;16.73;56.43;101669.58;128622;1101;63124;-82
2021/05/28 10:58:52;;;;;;;14.83;10.60;;;;;;;16.82;56.05;101665.77;128423;1104;61972;-80
2021/05/28 11:01:34;;;;;;;13.53;10.90;;;;;;;16.89;55.57;101661.28;128733;1101;61971;-85
2021/05/28 11:04:07;;;;;;;13.10;8.50;;;;;;;16.98;55.02;101646.75;128433;1104;61637;-78
2021/05/28 11:06:58;;;;;;;7.77;6.90;;;;;;;16.86;54.16;101654.47;128662;1101;62449;-79
2021/05/28 11:09:40;;;;;;;13.60;9.17;;;;;;;16.85;54.23;101668.05;128679;1101;62214;-78
2021/05/28 11:12:11;;;;;;;8.60;7.23;;;;;;;16.86;53.52;101659.83;128384;1104;62493;-84